Aeroporto :
LOGIN :

Iscrizione | Disclaimer

   EN    FR    IT 

 










Sommario :    VFR   VFR Marginale   IFR   IFR Intensivo   IFR Molto Intensivo
Visibilità : 
Base nubi : 
>= 8 km
>= 3000ft
5 / 8 km
1000 / 3000 ft
1500m / 5 km
500 / 1000 ft
800 / 1500m
200 / 500 ft
< 800m
< 200 ft
Simboli :   Temporali  Nebbia  Neve Forte  Precipitazioni Forti  Vento > 20 kt
SIGMETs :   Varie  Temporali  Ghiacco  Turbolenza  Onda orograficha  Ceneri Vulcaniche






- Altitudine del aeroporto : 390 ft
- Codice IATA : TMP


EFTP - Tampere-Pirkkala

ULTIMO METAR :
  • 270920Z 22011KT CAVOK 19/07 Q1021

METARs OBSOLETI :
  • 270850Z 20010KT 160V240 9999 FEW048 19/07 Q1022
  • 270820Z 23008KT 200V260 9999 FEW044 18/07 Q1022
  • 270750Z 22010KT 170V240 9999 FEW044 18/07 Q1023
  • 270720Z 21008KT 130V260 CAVOK 18/06 Q1023
  • 270650Z 22008KT 190V250 CAVOK 17/06 Q1023

TAF TAF EFTP
Valido dal 27 a 09 ore il 28 a 09 ore UTC


270823Z 2709/2809 23009KT 9999 FEW045
TEMPO 2711/2721 FEW050CB
PROB40
TEMPO 2714/2718 7000 -SHRA



MetMap, La meteo Aeronautica in un colpo d'occhio ! - Copyright ORBIFLY Dicembre 2007 - Disclaimer

ORBIFLY MET'MAP TEAM :

Programmazione e sviluppo : Alexandra Zaïnal
Concezione : Baudouin d'Aumeries
Aiuto per la programmazione : Marc-Olivier Méhu
Supporto tecnico e logistico : Manuel Goepfert
Aiuto per la traduzione : Arnaldo La Scala

Contatto : metmap@orbifly.com




FONTI E CREDITI :

   NOAA